Time;durP1;ratioP1;P1;durP2;ratioP2;P2;SDS_P1;SDS_P2;PMS_P1;PMS_P2;Temp;Humidity;BMP_temperature;BMP_pressure;BME280_temperature;BME280_humidity;BME280_pressure;Samples;Min_cycle;Max_cycle;Signal;HPM_P1;HPM_P2
2021/09/10 00:01:21;;;;;;;36.42;26.40;;;;;;;;;;4992480;28;20138;-84
2021/09/10 00:03:47;;;;;;;29.83;26.75;;;;;;;;;;4991959;28;20045;-85
2021/09/10 00:06:12;;;;;;;42.17;33.13;;;;;;;;;;4991637;28;20076;-85
2021/09/10 00:08:37;;;;;;;28.07;25.07;;;;;;;;;;4995211;28;20277;-85
2021/09/10 00:11:03;;;;;;;33.95;28.75;;;;;;;;;;4993872;28;20258;-85
2021/09/10 00:13:28;;;;;;;29.83;26.75;;;;;;;;;;4993854;28;20101;-85
2021/09/10 00:15:53;;;;;;;28.67;25.67;;;;;;;;;;4991204;28;20208;-85
2021/09/10 00:18:19;;;;;;;30.05;26.23;;;;;;;;;;4990902;28;20022;-85
2021/09/10 00:20:44;;;;;;;32.90;27.38;;;;;;;;;;4991414;28;20026;-85
2021/09/10 00:23:10;;;;;;;31.90;27.98;;;;;;;;;;4994272;28;20023;-86
2021/09/10 00:25:35;;;;;;;46.38;38.25;;;;;;;;;;4992131;28;20022;-85
2021/09/10 00:28:01;;;;;;;32.55;28.90;;;;;;;;;;5004687;28;20054;-85
2021/09/10 00:30:28;;;;;;;42.22;35.25;;;;;;;;;;4994540;28;20389;-85
2021/09/10 00:32:54;;;;;;;41.60;35.35;;;;;;;;;;4993934;28;20037;-85
2021/09/10 00:35:19;;;;;;;34.53;30.27;;;;;;;;;;4994755;28;20025;-85
2021/09/10 00:37:45;;;;;;;34.80;31.17;;;;;;;;;;4995068;28;20523;-85
2021/09/10 00:40:10;;;;;;;34.63;31.00;;;;;;;;;;4994346;28;20162;-85
2021/09/10 00:42:39;;;;;;;42.83;37.08;;;;;;;;;;4994556;28;20022;-85
2021/09/10 00:45:04;;;;;;;39.53;34.45;;;;;;;;;;5011682;28;20057;-85
2021/09/10 00:47:30;;;;;;;44.58;39.03;;;;;;;;;;5010870;28;20030;-85
2021/09/10 00:49:55;;;;;;;39.72;35.00;;;;;;;;;;5013733;28;20002;-85
2021/09/10 00:52:21;;;;;;;39.37;35.10;;;;;;;;;;4994745;28;20030;-86
2021/09/10 00:54:46;;;;;;;50.95;44.85;;;;;;;;;;5012254;28;20272;-85
2021/09/10 00:57:12;;;;;;;45.28;39.72;;;;;;;;;;5011489;28;20670;-86
2021/09/10 00:59:37;;;;;;;40.85;36.45;;;;;;;;;;5011439;28;20037;-85
2021/09/10 01:02:03;;;;;;;40.53;36.10;;;;;;;;;;4993669;28;20105;-85
2021/09/10 01:04:28;;;;;;;45.83;40.95;;;;;;;;;;4996551;28;20312;-85
2021/09/10 01:06:54;;;;;;;40.95;36.45;;;;;;;;;;5012372;28;20495;-85
2021/09/10 01:09:20;;;;;;;51.63;45.17;;;;;;;;;;5011792;28;20108;-86
2021/09/10 01:11:50;;;;;;;54.13;46.08;;;;;;;;;;5011761;28;20033;-85
2021/09/10 01:14:16;;;;;;;41.17;36.83;;;;;;;;;;4993915;28;20433;-85
2021/09/10 01:16:42;;;;;;;39.33;35.20;;;;;;;;;;4993537;28;20061;-85
2021/09/10 01:19:18;;;;;;;44.83;35.70;;;;;;;;;;4980590;28;20140;-85
2021/09/10 01:21:43;;;;;;;39.13;34.97;;;;;;;;;;4994054;28;20018;-86
2021/09/10 01:24:09;;;;;;;51.50;43.97;;;;;;;;;;4994543;28;20026;-84
2021/09/10 01:26:34;;;;;;;50.40;44.28;;;;;;;;;;4993636;28;20025;-85
2021/09/10 01:29:01;;;;;;;44.65;38.63;;;;;;;;;;5011591;28;20303;-85
2021/09/10 01:31:26;;;;;;;45.83;40.90;;;;;;;;;;4993487;28;20026;-84
2021/09/10 01:33:52;;;;;;;48.70;43.40;;;;;;;;;;5013624;28;20092;-85
2021/09/10 01:36:17;;;;;;;58.35;52.08;;;;;;;;;;4994736;28;20300;-86
2021/09/10 01:38:42;;;;;;;50.53;44.87;;;;;;;;;;4993851;28;20060;-85
2021/09/10 01:41:08;;;;;;;57.40;51.13;;;;;;;;;;4993881;28;20293;-85
2021/09/10 01:43:33;;;;;;;51.17;43.90;;;;;;;;;;5011086;28;20072;-86
2021/09/10 01:45:58;;;;;;;55.35;47.17;;;;;;;;;;4993356;28;20112;-85
2021/09/10 01:48:23;;;;;;;55.70;45.23;;;;;;;;;;5013519;28;20018;-85
2021/09/10 01:50:49;;;;;;;48.90;43.80;;;;;;;;;;4994085;28;20343;-85
2021/09/10 01:53:14;;;;;;;46.30;41.30;;;;;;;;;;4993711;28;20902;-86
2021/09/10 01:55:39;;;;;;;71.53;59.43;;;;;;;;;;4993895;28;20130;-85
2021/09/10 01:58:04;;;;;;;63.55;54.28;;;;;;;;;;4993453;28;20731;-85
2021/09/10 02:00:32;;;;;;;61.80;52.73;;;;;;;;;;4999140;28;20079;-86
2021/09/10 02:02:57;;;;;;;51.70;42.95;;;;;;;;;;4997735;28;20265;-85
2021/09/10 02:05:23;;;;;;;57.92;51.03;;;;;;;;;;5014990;28;20022;-85
2021/09/10 02:07:48;;;;;;;55.08;48.78;;;;;;;;;;5015031;28;20117;-85
2021/09/10 02:10:14;;;;;;;47.63;41.17;;;;;;;;;;5014562;28;20026;-85
2021/09/10 02:12:42;;;;;;;60.28;51.72;;;;;;;;;;4997347;28;20026;-85
2021/09/10 02:15:08;;;;;;;48.35;41.65;;;;;;;;;;5015095;28;20026;-85
2021/09/10 02:17:33;;;;;;;51.42;45.58;;;;;;;;;;4996563;28;20030;-85
2021/09/10 02:19:59;;;;;;;47.90;42.63;;;;;;;;;;5014627;28;20025;-85
2021/09/10 02:22:24;;;;;;;48.72;41.88;;;;;;;;;;5014356;28;20055;-85
2021/09/10 02:24:49;;;;;;;77.00;59.75;;;;;;;;;;4997288;28;20411;-85
2021/09/10 02:27:15;;;;;;;43.83;39.35;;;;;;;;;;4997414;28;20627;-85
2021/09/10 02:29:41;;;;;;;61.92;51.03;;;;;;;;;;4996947;28;20022;-85
2021/09/10 02:32:06;;;;;;;59.83;51.25;;;;;;;;;;5014366;28;20028;-85
2021/09/10 02:34:31;;;;;;;44.85;40.00;;;;;;;;;;4996504;28;20029;-86
2021/09/10 02:36:57;;;;;;;64.50;52.85;;;;;;;;;;5013872;28;20040;-85
2021/09/10 02:39:22;;;;;;;68.50;53.40;;;;;;;;;;4996280;28;20465;-85
2021/09/10 02:41:48;;;;;;;48.58;41.28;;;;;;;;;;5015502;28;20084;-86
2021/09/10 02:44:13;;;;;;;49.05;43.67;;;;;;;;;;5014530;28;20089;-85
2021/09/10 02:46:42;;;;;;;51.30;45.77;;;;;;;;;;4996574;28;20025;-85
2021/09/10 02:49:07;;;;;;;66.28;54.75;;;;;;;;;;5013835;28;20271;-85
2021/09/10 02:51:33;;;;;;;68.53;58.92;;;;;;;;;;4995892;28;20460;-85
2021/09/10 02:53:58;;;;;;;65.07;53.75;;;;;;;;;;4998695;28;20080;-86
2021/09/10 02:56:24;;;;;;;71.45;58.38;;;;;;;;;;4997144;28;20034;-85
2021/09/10 02:58:50;;;;;;;56.03;48.88;;;;;;;;;;4996728;28;20235;-85
2021/09/10 03:01:15;;;;;;;66.30;56.30;;;;;;;;;;4996715;28;20128;-86
2021/09/10 03:03:40;;;;;;;77.25;60.13;;;;;;;;;;5013506;28;20062;-85
2021/09/10 03:06:06;;;;;;;77.45;62.92;;;;;;;;;;4995823;28;20056;-85
2021/09/10 03:08:31;;;;;;;67.80;58.88;;;;;;;;;;4996859;28;20026;-85
2021/09/10 03:10:56;;;;;;;79.93;66.80;;;;;;;;;;4996011;28;20029;-85
2021/09/10 03:13:21;;;;;;;52.72;46.58;;;;;;;;;;4995666;28;20265;-86
2021/09/10 03:15:47;;;;;;;62.45;51.97;;;;;;;;;;5013950;28;20022;-86
2021/09/10 03:18:12;;;;;;;56.80;48.80;;;;;;;;;;4995278;28;20036;-85
2021/09/10 03:20:40;;;;;;;67.90;58.78;;;;;;;;;;4995587;28;20391;-85
2021/09/10 03:23:05;;;;;;;58.70;50.50;;;;;;;;;;4998124;28;20041;-85
2021/09/10 03:25:31;;;;;;;54.22;48.03;;;;;;;;;;4996167;28;20018;-85
2021/09/10 03:27:56;;;;;;;57.08;47.45;;;;;;;;;;4991740;28;20050;-85
2021/09/10 03:30:21;;;;;;;53.95;48.08;;;;;;;;;;4991921;28;20037;-85
2021/09/10 03:32:47;;;;;;;51.83;46.38;;;;;;;;;;4993060;28;20029;-85
2021/09/10 03:35:12;;;;;;;57.92;50.28;;;;;;;;;;4993227;28;20022;-86
2021/09/10 03:37:37;;;;;;;77.97;61.97;;;;;;;;;;4993840;28;20136;-85
2021/09/10 03:40:03;;;;;;;58.13;51.37;;;;;;;;;;4992052;28;20022;-86
2021/09/10 03:42:29;;;;;;;61.03;53.83;;;;;;;;;;4991903;28;20268;-85
2021/09/10 03:44:54;;;;;;;57.30;51.07;;;;;;;;;;4991906;28;20533;-85
2021/09/10 03:47:19;;;;;;;53.00;47.38;;;;;;;;;;4993231;28;20359;-85
2021/09/10 03:49:47;;;;;;;62.03;54.80;;;;;;;;;;4993366;28;20077;-85
2021/09/10 03:52:12;;;;;;;57.78;51.45;;;;;;;;;;4993611;28;20672;-85
2021/09/10 03:54:37;;;;;;;65.28;53.85;;;;;;;;;;4994824;28;20022;-85
2021/09/10 03:57:03;;;;;;;52.08;46.58;;;;;;;;;;4993171;28;20401;-85
2021/09/10 03:59:28;;;;;;;51.60;45.97;;;;;;;;;;4991939;28;20033;-85
2021/09/10 04:01:54;;;;;;;64.93;55.10;;;;;;;;;;4992670;28;20470;-85
2021/09/10 04:04:20;;;;;;;61.17;52.75;;;;;;;;;;4993442;28;20093;-85
2021/09/10 04:06:45;;;;;;;64.57;55.63;;;;;;;;;;4995532;28;20105;-85
2021/09/10 04:09:10;;;;;;;54.30;48.65;;;;;;;;;;4991086;28;20026;-85
2021/09/10 04:11:37;;;;;;;48.70;43.63;;;;;;;;;;4991751;28;20121;-85
2021/09/10 04:14:03;;;;;;;47.80;42.80;;;;;;;;;;4992888;28;20022;-85
2021/09/10 04:16:28;;;;;;;50.17;44.80;;;;;;;;;;4991037;28;20053;-85
2021/09/10 04:18:53;;;;;;;49.72;42.60;;;;;;;;;;4993540;28;20050;-86
2021/09/10 04:21:19;;;;;;;63.00;54.50;;;;;;;;;;4992504;28;20084;-85
2021/09/10 04:23:44;;;;;;;54.43;48.17;;;;;;;;;;4991225;28;20024;-86
2021/09/10 04:26:09;;;;;;;53.67;47.65;;;;;;;;;;4991661;28;20297;-85
2021/09/10 04:28:34;;;;;;;55.97;47.57;;;;;;;;;;4991151;28;20066;-86
2021/09/10 04:30:59;;;;;;;48.53;41.03;;;;;;;;;;4991154;28;20258;-85
2021/09/10 04:33:25;;;;;;;45.03;40.25;;;;;;;;;;4991150;28;20375;-85
2021/09/10 04:35:50;;;;;;;52.05;45.30;;;;;;;;;;4992388;28;20050;-85
2021/09/10 04:38:15;;;;;;;51.97;44.85;;;;;;;;;;4992529;28;20105;-85
2021/09/10 04:40:41;;;;;;;50.15;44.97;;;;;;;;;;4991219;28;20394;-85
2021/09/10 04:43:06;;;;;;;56.20;49.05;;;;;;;;;;4990535;28;20100;-85
2021/09/10 04:45:31;;;;;;;43.92;39.42;;;;;;;;;;4991400;28;20018;-86
2021/09/10 04:47:56;;;;;;;47.38;41.00;;;;;;;;;;4991569;28;20030;-85
2021/09/10 04:50:22;;;;;;;50.40;44.92;;;;;;;;;;4991482;28;20029;-86
2021/09/10 04:52:47;;;;;;;42.95;38.22;;;;;;;;;;4990683;28;20026;-85
2021/09/10 04:55:12;;;;;;;42.33;37.92;;;;;;;;;;4992522;28;20044;-85
2021/09/10 04:57:39;;;;;;;46.08;40.85;;;;;;;;;;4991548;28;20057;-85
2021/09/10 05:00:04;;;;;;;40.20;36.17;;;;;;;;;;4993795;28;20168;-86
2021/09/10 05:02:29;;;;;;;45.20;40.30;;;;;;;;;;4992706;28;20110;-85
2021/09/10 05:04:55;;;;;;;49.80;44.37;;;;;;;;;;4990484;28;20105;-85
2021/09/10 05:07:20;;;;;;;52.47;46.88;;;;;;;;;;4990766;28;20416;-85
2021/09/10 05:09:45;;;;;;;56.72;49.17;;;;;;;;;;4990308;28;20022;-85
2021/09/10 05:12:10;;;;;;;54.30;47.45;;;;;;;;;;4991129;28;20033;-85
2021/09/10 05:14:36;;;;;;;53.90;46.40;;;;;;;;;;4991561;28;20082;-85
2021/09/10 05:17:01;;;;;;;50.00;44.23;;;;;;;;;;4990283;28;20046;-85
2021/09/10 05:19:26;;;;;;;61.42;50.58;;;;;;;;;;4991503;28;20462;-85
2021/09/10 05:21:52;;;;;;;58.67;52.22;;;;;;;;;;4990407;28;20018;-85
2021/09/10 05:24:18;;;;;;;48.30;43.20;;;;;;;;;;4989896;28;20029;-86
2021/09/10 05:26:43;;;;;;;54.57;45.63;;;;;;;;;;4992463;28;20109;-85
2021/09/10 05:29:08;;;;;;;52.38;46.63;;;;;;;;;;4993888;28;20315;-85
2021/09/10 05:31:33;;;;;;;46.20;40.13;;;;;;;;;;4993505;28;20022;-86
2021/09/10 05:33:59;;;;;;;45.97;41.00;;;;;;;;;;4995638;28;20083;-85
2021/09/10 05:36:24;;;;;;;43.25;38.63;;;;;;;;;;4997527;28;20025;-86
2021/09/10 05:38:49;;;;;;;50.45;44.38;;;;;;;;;;5015013;28;20416;-85
2021/09/10 05:41:14;;;;;;;55.80;46.90;;;;;;;;;;4998817;28;20108;-85
2021/09/10 05:43:40;;;;;;;58.13;48.08;;;;;;;;;;4996944;28;20787;-85
2021/09/10 05:46:05;;;;;;;57.87;45.90;;;;;;;;;;4997334;28;20041;-85
2021/09/10 05:48:30;;;;;;;54.22;45.65;;;;;;;;;;4997046;28;20300;-85
2021/09/10 05:50:56;;;;;;;50.55;41.95;;;;;;;;;;4997330;28;20021;-85
2021/09/10 05:53:21;;;;;;;41.25;36.72;;;;;;;;;;4996901;28;20026;-85
2021/09/10 05:55:46;;;;;;;45.75;40.30;;;;;;;;;;5014872;28;20033;-85
2021/09/10 05:58:11;;;;;;;41.75;37.25;;;;;;;;;;4996525;28;20030;-85
2021/09/10 06:00:37;;;;;;;37.42;33.28;;;;;;;;;;4996950;28;20018;-85
2021/09/10 06:03:03;;;;;;;37.13;33.28;;;;;;;;;;4993866;28;20022;-85
2021/09/10 06:05:28;;;;;;;35.88;31.95;;;;;;;;;;4994214;28;20058;-85
2021/09/10 06:07:53;;;;;;;35.93;31.87;;;;;;;;;;4995106;28;20073;-85
2021/09/10 06:10:19;;;;;;;38.40;34.50;;;;;;;;;;4994637;28;20026;-86
2021/09/10 06:12:44;;;;;;;32.47;28.40;;;;;;;;;;5017306;28;20024;-85
2021/09/10 06:15:10;;;;;;;38.17;33.20;;;;;;;;;;5021186;28;20021;-86
2021/09/10 06:17:35;;;;;;;32.67;28.50;;;;;;;;;;5028075;28;20025;-85
2021/09/10 06:20:01;;;;;;;39.63;32.22;;;;;;;;;;4995079;28;20607;-85
2021/09/10 06:22:28;;;;;;;34.80;30.67;;;;;;;;;;5029893;28;20385;-85
2021/09/10 06:24:53;;;;;;;38.38;28.98;;;;;;;;;;5032656;28;20655;-85
2021/09/10 06:27:21;;;;;;;44.45;31.05;;;;;;;;;;5032085;28;20106;-85
2021/09/10 06:29:46;;;;;;;38.70;30.17;;;;;;;;;;5027830;28;20018;-85
2021/09/10 06:32:16;;;;;;;30.80;27.50;;;;;;;;;;4992128;28;20033;-85
2021/09/10 06:34:42;;;;;;;34.42;28.73;;;;;;;;;;5011058;28;20029;-85
2021/09/10 06:37:09;;;;;;;42.03;32.67;;;;;;;;;;5032290;28;20021;-85
2021/09/10 06:39:35;;;;;;;36.58;32.22;;;;;;;;;;5035588;28;20252;-86
2021/09/10 06:42:00;;;;;;;36.63;31.60;;;;;;;;;;5013975;28;20031;-85
2021/09/10 06:44:25;;;;;;;30.17;25.90;;;;;;;;;;5013505;28;20033;-85
2021/09/10 06:46:50;;;;;;;34.37;30.07;;;;;;;;;;5013328;28;20055;-85
2021/09/10 06:49:16;;;;;;;33.67;29.23;;;;;;;;;;5032394;28;20032;-85
2021/09/10 06:51:41;;;;;;;33.17;29.27;;;;;;;;;;5014420;28;20413;-85
2021/09/10 06:54:06;;;;;;;33.80;28.98;;;;;;;;;;5016012;28;20354;-85
2021/09/10 06:56:35;;;;;;;36.60;29.63;;;;;;;;;;5013966;28;20427;-84
2021/09/10 06:59:00;;;;;;;31.58;27.33;;;;;;;;;;5014161;28;20396;-85
2021/09/10 07:01:25;;;;;;;32.70;29.17;;;;;;;;;;5031744;28;20021;-86
2021/09/10 07:03:50;;;;;;;36.83;28.80;;;;;;;;;;5031754;28;20264;-85
2021/09/10 07:06:16;;;;;;;38.88;31.45;;;;;;;;;;5031780;28;20018;-85
2021/09/10 07:08:41;;;;;;;33.75;29.33;;;;;;;;;;5033100;28;20025;-85
2021/09/10 07:11:06;;;;;;;37.05;32.17;;;;;;;;;;5013814;28;20480;-85
2021/09/10 07:13:31;;;;;;;37.33;31.55;;;;;;;;;;5013527;28;20028;-85
2021/09/10 07:15:56;;;;;;;34.07;30.40;;;;;;;;;;5013957;28;20032;-85
2021/09/10 07:18:22;;;;;;;40.17;33.50;;;;;;;;;;5031998;28;20826;-85
2021/09/10 07:20:47;;;;;;;34.50;30.80;;;;;;;;;;5013730;28;20056;-85
2021/09/10 07:23:12;;;;;;;45.95;37.90;;;;;;;;;;5014267;28;20029;-85
2021/09/10 07:25:38;;;;;;;40.97;34.17;;;;;;;;;;5032866;28;20495;-85
2021/09/10 07:28:03;;;;;;;42.55;34.50;;;;;;;;;;5031629;28;20500;-85
2021/09/10 07:30:28;;;;;;;39.63;33.22;;;;;;;;;;5013768;28;20128;-85
2021/09/10 07:32:54;;;;;;;51.43;42.20;;;;;;;;;;5013437;28;20056;-86
2021/09/10 07:35:19;;;;;;;36.77;31.33;;;;;;;;;;5013173;28;20330;-85
2021/09/10 07:37:46;;;;;;;45.67;38.17;;;;;;;;;;5031768;28;20037;-85
2021/09/10 07:40:11;;;;;;;44.38;37.17;;;;;;;;;;5032393;28;20028;-85
2021/09/10 07:42:37;;;;;;;49.20;40.10;;;;;;;;;;5013434;28;20013;-85
2021/09/10 07:45:02;;;;;;;45.03;38.87;;;;;;;;;;5031725;28;20018;-86
2021/09/10 07:47:27;;;;;;;47.90;39.95;;;;;;;;;;5031303;28;20252;-86
2021/09/10 07:49:52;;;;;;;41.42;36.65;;;;;;;;;;5031072;28;20083;-86
2021/09/10 07:52:18;;;;;;;39.17;31.30;;;;;;;;;;5013074;28;20025;-85
2021/09/10 07:54:43;;;;;;;46.63;38.33;;;;;;;;;;5032393;28;20318;-85
2021/09/10 07:57:11;;;;;;;48.37;39.77;;;;;;;;;;5012149;28;20074;-85
2021/09/10 07:59:36;;;;;;;40.97;35.50;;;;;;;;;;5012915;28;20021;-85
2021/09/10 08:02:01;;;;;;;40.85;33.58;;;;;;;;;;5030944;28;20053;-83
2021/09/10 08:04:26;;;;;;;38.05;33.80;;;;;;;;;;5012934;28;20055;-85
2021/09/10 08:06:52;;;;;;;39.77;35.60;;;;;;;;;;5023446;28;20366;-85
2021/09/10 08:09:17;;;;;;;41.33;36.83;;;;;;;;;;5011194;28;20049;-85
2021/09/10 08:11:42;;;;;;;41.70;33.77;;;;;;;;;;5004121;28;20098;-85
2021/09/10 08:14:09;;;;;;;38.88;33.08;;;;;;;;;;5012536;28;20025;-85
2021/09/10 08:16:35;;;;;;;48.05;39.42;;;;;;;;;;5012645;28;20041;-86
2021/09/10 08:19:00;;;;;;;50.35;41.13;;;;;;;;;;5030343;28;20476;-85
2021/09/10 08:21:25;;;;;;;42.53;38.00;;;;;;;;;;5012577;28;20018;-86
2021/09/10 08:23:50;;;;;;;45.27;38.43;;;;;;;;;;5032523;28;20029;-85
2021/09/10 08:26:16;;;;;;;48.97;39.13;;;;;;;;;;5012780;28;20296;-85
2021/09/10 08:28:41;;;;;;;43.92;38.85;;;;;;;;;;5012000;28;20049;-85
2021/09/10 08:31:07;;;;;;;43.05;35.80;;;;;;;;;;5012522;28;20028;-85
2021/09/10 08:33:32;;;;;;;46.42;39.60;;;;;;;;;;5012201;28;20029;-86
2021/09/10 08:35:57;;;;;;;45.25;38.70;;;;;;;;;;5030556;28;20017;-85
2021/09/10 08:38:22;;;;;;;45.78;39.15;;;;;;;;;;5030180;28;20029;-85
2021/09/10 08:40:48;;;;;;;42.63;35.77;;;;;;;;;;5030171;28;20029;-85
2021/09/10 08:43:14;;;;;;;53.92;41.00;;;;;;;;;;5011895;28;20029;-85
2021/09/10 08:45:39;;;;;;;46.80;41.42;;;;;;;;;;5012476;28;20116;-85
2021/09/10 08:48:05;;;;;;;47.65;41.63;;;;;;;;;;5029844;28;20097;-85
2021/09/10 08:50:30;;;;;;;43.17;36.38;;;;;;;;;;5015644;28;20022;-85
2021/09/10 08:52:56;;;;;;;46.40;41.33;;;;;;;;;;5031124;28;20056;-86
2021/09/10 08:55:23;;;;;;;45.75;40.35;;;;;;;;;;5029307;28;20261;-85
2021/09/10 08:57:50;;;;;;;42.78;36.78;;;;;;;;;;5031352;28;20025;-86
2021/09/10 09:00:16;;;;;;;43.30;38.42;;;;;;;;;;5029491;28;20051;-85
2021/09/10 09:02:41;;;;;;;47.00;41.25;;;;;;;;;;5029067;28;20365;-85
2021/09/10 09:05:07;;;;;;;43.93;37.30;;;;;;;;;;5031810;28;20022;-85
2021/09/10 09:07:32;;;;;;;44.80;35.90;;;;;;;;;;5011575;28;20025;-86
2021/09/10 09:09:58;;;;;;;46.60;34.50;;;;;;;;;;5011514;28;20030;-86
2021/09/10 09:12:24;;;;;;;50.20;38.05;;;;;;;;;;5029113;28;20064;-85
2021/09/10 09:15:00;;;;;;;36.63;32.80;;;;;;;;;;5029081;28;20107;-85
2021/09/10 09:17:35;;;;;;;43.65;36.63;;;;;;;;;;5029171;28;20476;-85
2021/09/10 09:20:21;;;;;;;39.65;35.38;;;;;;;;;;5011360;28;20025;-86
2021/09/10 09:23:01;;;;;;;46.03;37.65;;;;;;;;;;4996810;28;20502;-85
2021/09/10 09:25:33;;;;;;;38.05;31.83;;;;;;;;;;5029174;28;20048;-85
2021/09/10 09:28:19;;;;;;;37.90;32.88;;;;;;;;;;5023396;28;20089;-85
2021/09/10 09:30:45;;;;;;;37.10;32.25;;;;;;;;;;5009007;28;20100;-86
2021/09/10 09:33:13;;;;;;;40.58;34.40;;;;;;;;;;5010430;28;20033;-85
2021/09/10 09:35:39;;;;;;;41.85;34.10;;;;;;;;;;5008853;28;20046;-86
2021/09/10 09:38:33;;;;;;;37.25;33.35;;;;;;;;;;5008863;28;20698;-85
2021/09/10 09:41:00;;;;;;;33.88;30.08;;;;;;;;;;4978309;28;20077;-85
2021/09/10 09:43:30;;;;;;;33.38;29.90;;;;;;;;;;4994958;28;20064;-85
2021/09/10 09:45:55;;;;;;;29.88;26.30;;;;;;;;;;5009385;28;20132;-85
2021/09/10 09:48:21;;;;;;;31.15;27.30;;;;;;;;;;4991183;28;20128;-85
2021/09/10 09:50:51;;;;;;;28.17;23.75;;;;;;;;;;5012477;28;20026;-85
2021/09/10 09:53:17;;;;;;;32.83;28.10;;;;;;;;;;4998250;28;20025;-86
2021/09/10 09:55:43;;;;;;;28.67;25.58;;;;;;;;;;5020347;28;20021;-86
2021/09/10 09:58:08;;;;;;;31.05;26.65;;;;;;;;;;5003610;28;20056;-86
2021/09/10 10:00:38;;;;;;;30.67;27.40;;;;;;;;;;4991724;28;20832;-86
2021/09/10 10:03:03;;;;;;;28.98;24.92;;;;;;;;;;5014519;28;20022;-86
2021/09/10 10:05:47;;;;;;;27.90;24.88;;;;;;;;;;5018186;28;20028;-86
2021/09/10 10:08:13;;;;;;;34.80;30.33;;;;;;;;;;5002436;28;20064;-86
2021/09/10 10:10:49;;;;;;;36.65;32.17;;;;;;;;;;5010596;28;20049;-85
2021/09/10 10:13:23;;;;;;;34.78;31.02;;;;;;;;;;4995459;28;20568;-85
2021/09/10 10:15:49;;;;;;;39.78;33.45;;;;;;;;;;5010221;28;20183;-86
2021/09/10 10:18:34;;;;;;;37.72;32.75;;;;;;;;;;5024025;28;20088;-86
2021/09/10 10:20:59;;;;;;;34.70;30.75;;;;;;;;;;5006377;28;20030;-86
2021/09/10 10:23:42;;;;;;;33.10;25.97;;;;;;;;;;5012724;28;20048;-85
2021/09/10 10:26:12;;;;;;;26.88;23.67;;;;;;;;;;5009513;28;20390;-86
2021/09/10 10:28:44;;;;;;;27.30;22.17;;;;;;;;;;5014182;28;20560;-86
2021/09/10 10:31:10;;;;;;;26.35;23.20;;;;;;;;;;5014632;28;20787;-86
2021/09/10 10:33:36;;;;;;;28.15;23.40;;;;;;;;;;5031900;28;20039;-86
2021/09/10 10:36:19;;;;;;;26.60;21.33;;;;;;;;;;5032190;28;20021;-85
2021/09/10 10:39:04;;;;;;;23.52;20.45;;;;;;;;;;5014093;28;20033;-85
2021/09/10 10:41:42;;;;;;;26.00;20.88;;;;;;;;;;5031828;28;20666;-86
2021/09/10 10:44:26;;;;;;;23.42;18.25;;;;;;;;;;5032896;28;20029;-85
2021/09/10 10:47:01;;;;;;;28.40;17.55;;;;;;;;;;5031910;28;20033;-85
2021/09/10 10:49:40;;;;;;;20.98;18.33;;;;;;;;;;5013944;28;20059;-85
2021/09/10 10:52:23;;;;;;;28.55;22.67;;;;;;;;;;5031781;28;20541;-86
2021/09/10 10:55:07;;;;;;;25.55;20.20;;;;;;;;;;4974749;28;20030;-86
2021/09/10 10:57:34;;;;;;;23.08;20.17;;;;;;;;;;4992138;28;20029;-86
2021/09/10 10:59:59;;;;;;;23.48;19.83;;;;;;;;;;4975102;28;20478;-86
2021/09/10 11:04:50;;;;;;;23.97;20.87;;;;;;;;;;5031836;28;20275;-85
2021/09/10 11:07:26;;;;;;;28.23;22.35;;;;;;;;;;5031828;28;20064;-86
2021/09/10 11:10:02;;;;;;;30.77;23.50;;;;;;;;;;5031572;28;20435;-86
2021/09/10 11:12:27;;;;;;;30.25;23.10;;;;;;;;;;5014729;28;20053;-86
2021/09/10 11:14:53;;;;;;;23.80;19.08;;;;;;;;;;5013766;28;20084;-86
2021/09/10 11:17:23;;;;;;;21.67;16.40;;;;;;;;;;5031783;28;20029;-86
2021/09/10 11:19:48;;;;;;;16.65;12.98;;;;;;;;;;5032064;28;20100;-86
2021/09/10 11:22:14;;;;;;;15.30;12.10;;;;;;;;;;5031590;28;20437;-85
2021/09/10 11:24:39;;;;;;;16.95;12.63;;;;;;;;;;5013430;28;20261;-85
2021/09/10 11:27:24;;;;;;;17.38;13.07;;;;;;;;;;5016552;28;20044;-85
2021/09/10 11:29:49;;;;;;;15.77;11.63;;;;;;;;;;5031649;28;20029;-85
2021/09/10 11:32:20;;;;;;;16.15;11.00;;;;;;;;;;5012761;28;20677;-86
2021/09/10 11:34:46;;;;;;;18.00;10.73;;;;;;;;;;4974432;28;20030;-86
2021/09/10 11:37:11;;;;;;;15.13;10.45;;;;;;;;;;5005490;28;20091;-85
2021/09/10 11:39:42;;;;;;;15.40;11.43;;;;;;;;;;5013542;28;20598;-85
2021/09/10 11:42:08;;;;;;;15.43;10.05;;;;;;;;;;5013885;28;20966;-86
2021/09/10 11:44:33;;;;;;;16.13;10.83;;;;;;;;;;5031291;28;20089;-85
2021/09/10 11:46:58;;;;;;;13.70;10.17;;;;;;;;;;5031172;28;20025;-86
2021/09/10 11:49:23;;;;;;;16.77;10.63;;;;;;;;;;5030992;28;20485;-86
2021/09/10 11:51:50;;;;;;;14.93;10.57;;;;;;;;;;5030888;28;20268;-86
2021/09/10 11:54:17;;;;;;;13.50;9.07;;;;;;;;;;5013163;28;20082;-86
2021/09/10 11:56:42;;;;;;;14.57;9.07;;;;;;;;;;5014035;28;20079;-87
2021/09/10 11:59:21;;;;;;;11.32;8.68;;;;;;;;;;5013158;28;20018;-86
2021/09/10 12:01:47;;;;;;;10.35;8.38;;;;;;;;;;5030804;28;20021;-87
2021/09/10 12:04:24;;;;;;;11.57;8.75;;;;;;;;;;5030926;28;20068;-86
2021/09/10 12:06:51;;;;;;;11.98;8.02;;;;;;;;;;5031054;28;20048;-86
2021/09/10 12:09:26;;;;;;;13.50;7.55;;;;;;;;;;5015147;28;20088;-86
2021/09/10 12:12:03;;;;;;;9.95;7.28;;;;;;;;;;5012882;28;20025;-86
2021/09/10 12:14:30;;;;;;;7.47;5.93;;;;;;;;;;5030436;28;20022;-86
2021/09/10 12:17:07;;;;;;;9.57;5.72;;;;;;;;;;5030590;28;20105;-85
2021/09/10 12:19:32;;;;;;;8.70;5.35;;;;;;;;;;5030275;28;20021;-86
2021/09/10 12:21:58;;;;;;;6.50;4.93;;;;;;;;;;5031604;28;20025;-87
2021/09/10 12:24:23;;;;;;;8.50;5.13;;;;;;;;;;5014509;28;20268;-87
2021/09/10 12:26:52;;;;;;;7.93;4.47;;;;;;;;;;5013317;28;20021;-87
2021/09/10 12:29:28;;;;;;;8.75;5.63;;;;;;;;;;5031336;28;20045;-87
2021/09/10 12:31:53;;;;;;;9.32;5.90;;;;;;;;;;5031130;28;20381;-87
2021/09/10 12:34:19;;;;;;;8.85;5.38;;;;;;;;;;5013201;28;20036;-87
2021/09/10 12:36:46;;;;;;;8.93;5.68;;;;;;;;;;5029279;28;20018;-84
2021/09/10 12:39:12;;;;;;;6.35;5.60;;;;;;;;;;5029678;28;20028;-85
2021/09/10 12:41:37;;;;;;;6.40;5.13;;;;;;;;;;5029983;28;20097;-84
2021/09/10 12:44:08;;;;;;;8.87;4.63;;;;;;;;;;5031624;28;20033;-84
2021/09/10 12:46:33;;;;;;;7.80;4.60;;;;;;;;;;5011653;28;20018;-84
2021/09/10 12:48:59;;;;;;;5.95;4.50;;;;;;;;;;5012257;28;20024;-84
2021/09/10 12:51:24;;;;;;;6.17;4.80;;;;;;;;;;5012586;28;20767;-84
2021/09/10 12:53:49;;;;;;;7.53;4.95;;;;;;;;;;5012673;28;20136;-84
2021/09/10 12:56:14;;;;;;;7.43;5.30;;;;;;;;;;5029475;28;20025;-84
2021/09/10 12:58:40;;;;;;;6.90;5.67;;;;;;;;;;5029508;28;20323;-84
2021/09/10 13:01:05;;;;;;;9.83;6.50;;;;;;;;;;5031840;28;20260;-84
2021/09/10 13:03:30;;;;;;;9.00;6.95;;;;;;;;;;5030978;28;20260;-84
2021/09/10 13:05:56;;;;;;;9.40;7.00;;;;;;;;;;5029380;28;20025;-84
2021/09/10 13:08:21;;;;;;;9.00;6.68;;;;;;;;;;5029756;28;20623;-85
2021/09/10 13:10:48;;;;;;;17.37;6.80;;;;;;;;;;5030060;28;20035;-84
2021/09/10 13:13:13;;;;;;;7.72;4.93;;;;;;;;;;5030328;28;20021;-84
2021/09/10 13:15:39;;;;;;;7.80;5.80;;;;;;;;;;5011528;28;20245;-84
2021/09/10 13:18:04;;;;;;;6.60;4.77;;;;;;;;;;5031404;28;20025;-85
2021/09/10 13:20:30;;;;;;;6.83;4.27;;;;;;;;;;5028908;28;20112;-85
2021/09/10 13:22:55;;;;;;;5.60;4.13;;;;;;;;;;5028448;28;20255;-85
2021/09/10 13:25:20;;;;;;;6.85;3.60;;;;;;;;;;5029578;28;20824;-85
2021/09/10 13:27:46;;;;;;;7.47;3.90;;;;;;;;;;5029005;28;20041;-84
2021/09/10 13:30:12;;;;;;;4.70;4.13;;;;;;;;;;5010816;28;20256;-84
2021/09/10 13:32:38;;;;;;;4.35;3.05;;;;;;;;;;5028408;28;20032;-85
2021/09/10 13:35:04;;;;;;;5.60;3.58;;;;;;;;;;5028665;28;20528;-84
2021/09/10 13:37:29;;;;;;;4.85;3.80;;;;;;;;;;5029566;28;20029;-84
2021/09/10 13:39:54;;;;;;;6.00;4.13;;;;;;;;;;5010706;28;20045;-85
2021/09/10 13:42:20;;;;;;;7.30;4.97;;;;;;;;;;5029256;28;20088;-84
2021/09/10 13:44:45;;;;;;;8.77;5.57;;;;;;;;;;4990633;28;20258;-84
2021/09/10 13:47:11;;;;;;;9.07;6.67;;;;;;;;;;4990773;28;20152;-85
2021/09/10 13:49:36;;;;;;;9.20;7.10;;;;;;;;;;5028932;28;20351;-84
2021/09/10 13:52:01;;;;;;;10.23;7.37;;;;;;;;;;5028832;28;20268;-85
2021/09/10 13:54:27;;;;;;;8.60;7.70;;;;;;;;;;5029486;28;20798;-84
2021/09/10 13:56:52;;;;;;;8.95;6.80;;;;;;;;;;5032974;28;20314;-85
2021/09/10 13:59:17;;;;;;;8.20;7.13;;;;;;;;;;5032482;28;20021;-84
2021/09/10 14:01:43;;;;;;;12.13;7.82;;;;;;;;;;5032600;28;20256;-85
2021/09/10 14:04:08;;;;;;;11.90;8.45;;;;;;;;;;5032802;28;20017;-84
2021/09/10 14:06:34;;;;;;;7.47;6.40;;;;;;;;;;5027459;28;20014;-84
2021/09/10 14:08:59;;;;;;;8.13;6.13;;;;;;;;;;5032885;28;20038;-84
2021/09/10 14:11:25;;;;;;;5.77;5.23;;;;;;;;;;5013587;28;20025;-84
2021/09/10 14:13:50;;;;;;;9.10;5.88;;;;;;;;;;5006915;28;20335;-84
2021/09/10 14:16:17;;;;;;;9.43;4.95;;;;;;;;;;5015463;28;20057;-85
2021/09/10 14:18:44;;;;;;;9.65;4.78;;;;;;;;;;5013725;28;20437;-84
2021/09/10 14:21:10;;;;;;;10.52;4.25;;;;;;;;;;5030385;28;20021;-85